sensor_id;sensor_type;location;lat;lon;timestamp;pressure;altitude;pressure_sealevel;temperature;humidity
64610;BME280;51019;46.090;6.350;2023-04-27T00:00:07;96609.03;;;6.96;100.00
64610;BME280;51019;46.090;6.350;2023-04-27T00:02:36;96627.88;;;6.88;100.00
64610;BME280;51019;46.090;6.350;2023-04-27T00:05:06;96620.53;;;6.93;100.00
64610;BME280;51019;46.090;6.350;2023-04-27T00:07:35;96605.13;;;6.79;100.00
64610;BME280;51019;46.090;6.350;2023-04-27T00:10:03;96585.09;;;6.79;100.00
64610;BME280;51019;46.090;6.350;2023-04-27T00:12:33;96620.28;;;6.96;100.00
64610;BME280;51019;46.090;6.350;2023-04-27T00:15:05;96609.75;;;6.64;100.00
64610;BME280;51019;46.090;6.350;2023-04-27T00:17:33;96559.03;;;6.46;100.00
64610;BME280;51019;46.090;6.350;2023-04-27T00:20:01;96621.00;;;6.76;100.00
64610;BME280;51019;46.090;6.350;2023-04-27T00:22:30;96610.06;;;6.48;100.00
64610;BME280;51019;46.090;6.350;2023-04-27T00:24:59;96619.16;;;6.43;100.00
64610;BME280;51019;46.090;6.350;2023-04-27T00:27:27;96610.16;;;6.47;100.00
64610;BME280;51019;46.090;6.350;2023-04-27T00:29:54;96608.66;;;6.67;100.00
64610;BME280;51019;46.090;6.350;2023-04-27T00:32:24;96615.78;;;6.65;100.00
64610;BME280;51019;46.090;6.350;2023-04-27T00:34:52;96609.16;;;6.72;100.00
64610;BME280;51019;46.090;6.350;2023-04-27T00:37:21;96614.25;;;6.73;100.00
64610;BME280;51019;46.090;6.350;2023-04-27T00:39:50;96612.03;;;6.34;100.00
64610;BME280;51019;46.090;6.350;2023-04-27T00:42:18;96609.91;;;6.28;100.00
64610;BME280;51019;46.090;6.350;2023-04-27T00:44:46;96611.19;;;6.33;100.00
64610;BME280;51019;46.090;6.350;2023-04-27T00:47:13;96609.44;;;6.45;100.00
64610;BME280;51019;46.090;6.350;2023-04-27T00:49:44;96601.38;;;6.37;100.00
64610;BME280;51019;46.090;6.350;2023-04-27T00:52:11;96594.09;;;6.42;100.00
64610;BME280;51019;46.090;6.350;2023-04-27T00:54:40;96592.44;;;6.06;100.00
64610;BME280;51019;46.090;6.350;2023-04-27T00:57:08;96603.50;;;6.21;100.00
64610;BME280;51019;46.090;6.350;2023-04-27T00:59:36;96600.41;;;5.92;100.00
64610;BME280;51019;46.090;6.350;2023-04-27T01:02:04;96563.16;;;5.67;100.00
64610;BME280;51019;46.090;6.350;2023-04-27T01:04:32;96594.00;;;5.84;100.00
64610;BME280;51019;46.090;6.350;2023-04-27T01:07:03;96596.97;;;5.67;100.00
64610;BME280;51019;46.090;6.350;2023-04-27T01:09:31;96602.72;;;5.60;100.00
64610;BME280;51019;46.090;6.350;2023-04-27T01:11:59;96589.31;;;5.53;100.00
64610;BME280;51019;46.090;6.350;2023-04-27T01:14:28;96598.47;;;5.82;100.00
64610;BME280;51019;46.090;6.350;2023-04-27T01:16:55;96602.06;;;5.69;100.00
64610;BME280;51019;46.090;6.350;2023-04-27T01:19:23;96602.50;;;5.87;100.00
64610;BME280;51019;46.090;6.350;2023-04-27T01:21:50;96597.94;;;5.90;100.00
64610;BME280;51019;46.090;6.350;2023-04-27T01:24:22;96599.25;;;5.96;100.00
64610;BME280;51019;46.090;6.350;2023-04-27T01:26:50;96575.78;;;5.84;100.00
64610;BME280;51019;46.090;6.350;2023-04-27T01:29:18;96594.19;;;5.81;100.00
64610;BME280;51019;46.090;6.350;2023-04-27T01:31:46;96605.50;;;6.17;100.00
64610;BME280;51019;46.090;6.350;2023-04-27T01:34:13;96565.34;;;5.73;100.00
64610;BME280;51019;46.090;6.350;2023-04-27T01:36:41;96596.13;;;5.43;100.00
64610;BME280;51019;46.090;6.350;2023-04-27T01:39:09;96610.13;;;5.53;100.00
64610;BME280;51019;46.090;6.350;2023-04-27T01:41:39;96610.75;;;5.80;100.00
64610;BME280;51019;46.090;6.350;2023-04-27T01:44:07;96615.31;;;5.90;100.00
64610;BME280;51019;46.090;6.350;2023-04-27T01:46:36;96621.22;;;5.92;100.00
64610;BME280;51019;46.090;6.350;2023-04-27T01:49:04;96620.00;;;5.84;100.00
64610;BME280;51019;46.090;6.350;2023-04-27T01:51:31;96593.00;;;5.74;100.00
64610;BME280;51019;46.090;6.350;2023-04-27T01:53:59;96595.34;;;5.77;100.00
64610;BME280;51019;46.090;6.350;2023-04-27T01:56:27;96603.38;;;5.98;100.00
64610;BME280;51019;46.090;6.350;2023-04-27T01:58:57;96612.41;;;5.81;100.00
64610;BME280;51019;46.090;6.350;2023-04-27T02:01:24;96619.25;;;5.59;100.00
64610;BME280;51019;46.090;6.350;2023-04-27T02:03:55;96605.53;;;5.57;100.00
64610;BME280;51019;46.090;6.350;2023-04-27T02:06:23;96602.22;;;5.55;100.00
64610;BME280;51019;46.090;6.350;2023-04-27T02:08:53;96605.69;;;5.66;100.00
64610;BME280;51019;46.090;6.350;2023-04-27T02:11:22;96564.63;;;5.47;100.00
64610;BME280;51019;46.090;6.350;2023-04-27T02:13:50;96606.44;;;5.68;100.00
64610;BME280;51019;46.090;6.350;2023-04-27T02:16:20;96588.06;;;5.59;100.00
64610;BME280;51019;46.090;6.350;2023-04-27T02:18:48;96603.50;;;5.73;100.00
64610;BME280;51019;46.090;6.350;2023-04-27T02:21:18;96600.91;;;5.73;100.00
64610;BME280;51019;46.090;6.350;2023-04-27T02:23:47;96585.91;;;5.76;100.00
64610;BME280;51019;46.090;6.350;2023-04-27T02:26:15;96605.31;;;5.60;100.00
64610;BME280;51019;46.090;6.350;2023-04-27T02:28:44;96602.25;;;5.42;100.00
64610;BME280;51019;46.090;6.350;2023-04-27T02:31:12;96619.06;;;5.25;100.00
64610;BME280;51019;46.090;6.350;2023-04-27T02:33:41;96615.34;;;5.17;100.00
64610;BME280;51019;46.090;6.350;2023-04-27T02:36:10;96627.53;;;5.03;100.00
64610;BME280;51019;46.090;6.350;2023-04-27T02:38:38;96602.28;;;5.05;100.00
64610;BME280;51019;46.090;6.350;2023-04-27T02:41:06;96602.56;;;5.14;100.00
64610;BME280;51019;46.090;6.350;2023-04-27T02:43:33;96613.75;;;5.27;100.00
64610;BME280;51019;46.090;6.350;2023-04-27T02:46:01;96611.88;;;5.29;100.00
64610;BME280;51019;46.090;6.350;2023-04-27T02:48:30;96616.72;;;5.46;100.00
64610;BME280;51019;46.090;6.350;2023-04-27T02:51:02;96616.91;;;5.43;100.00
64610;BME280;51019;46.090;6.350;2023-04-27T02:53:31;96608.84;;;5.35;100.00
64610;BME280;51019;46.090;6.350;2023-04-27T02:55:58;96596.97;;;5.43;100.00
64610;BME280;51019;46.090;6.350;2023-04-27T02:58:26;96630.44;;;5.48;100.00
64610;BME280;51019;46.090;6.350;2023-04-27T03:00:57;96622.25;;;4.92;100.00
64610;BME280;51019;46.090;6.350;2023-04-27T03:03:24;96639.94;;;5.24;100.00
64610;BME280;51019;46.090;6.350;2023-04-27T03:05:51;96637.53;;;5.33;100.00
64610;BME280;51019;46.090;6.350;2023-04-27T03:08:21;96615.50;;;5.39;100.00
64610;BME280;51019;46.090;6.350;2023-04-27T03:10:49;96635.63;;;5.48;100.00
64610;BME280;51019;46.090;6.350;2023-04-27T03:13:17;96629.97;;;5.54;100.00
64610;BME280;51019;46.090;6.350;2023-04-27T03:15:45;96630.50;;;5.59;100.00
64610;BME280;51019;46.090;6.350;2023-04-27T03:18:13;96590.94;;;5.43;100.00
64610;BME280;51019;46.090;6.350;2023-04-27T03:20:40;96625.09;;;5.62;100.00
64610;BME280;51019;46.090;6.350;2023-04-27T03:23:08;96623.34;;;5.14;100.00
64610;BME280;51019;46.090;6.350;2023-04-27T03:25:38;96629.59;;;5.11;100.00
64610;BME280;51019;46.090;6.350;2023-04-27T03:28:07;96632.59;;;5.18;100.00
64610;BME280;51019;46.090;6.350;2023-04-27T03:30:34;96617.72;;;5.20;100.00
64610;BME280;51019;46.090;6.350;2023-04-27T03:33:03;96631.00;;;5.40;100.00
64610;BME280;51019;46.090;6.350;2023-04-27T03:35:30;96624.72;;;5.43;100.00
64610;BME280;51019;46.090;6.350;2023-04-27T03:37:58;96628.50;;;5.39;100.00
64610;BME280;51019;46.090;6.350;2023-04-27T03:40:26;96589.66;;;5.25;100.00
64610;BME280;51019;46.090;6.350;2023-04-27T03:42:55;96611.41;;;5.47;100.00
64610;BME280;51019;46.090;6.350;2023-04-27T03:45:26;96631.47;;;5.45;100.00
64610;BME280;51019;46.090;6.350;2023-04-27T03:47:54;96632.16;;;5.24;100.00
64610;BME280;51019;46.090;6.350;2023-04-27T03:50:22;96637.78;;;5.18;100.00
64610;BME280;51019;46.090;6.350;2023-04-27T03:52:50;96621.09;;;4.96;100.00
64610;BME280;51019;46.090;6.350;2023-04-27T03:55:19;96632.38;;;5.21;100.00
64610;BME280;51019;46.090;6.350;2023-04-27T03:57:48;96626.13;;;5.23;100.00
64610;BME280;51019;46.090;6.350;2023-04-27T04:00:21;96622.69;;;5.23;100.00
64610;BME280;51019;46.090;6.350;2023-04-27T04:02:49;96624.44;;;5.35;100.00
64610;BME280;51019;46.090;6.350;2023-04-27T04:05:17;96620.19;;;5.21;100.00
64610;BME280;51019;46.090;6.350;2023-04-27T04:07:46;96637.56;;;5.08;100.00
64610;BME280;51019;46.090;6.350;2023-04-27T04:10:14;96618.19;;;4.88;100.00
64610;BME280;51019;46.090;6.350;2023-04-27T04:12:42;96605.94;;;4.78;100.00
64610;BME280;51019;46.090;6.350;2023-04-27T04:15:10;96638.84;;;5.02;100.00
64610;BME280;51019;46.090;6.350;2023-04-27T04:17:39;96635.41;;;5.02;100.00
64610;BME280;51019;46.090;6.350;2023-04-27T04:20:08;96640.22;;;4.95;100.00
64610;BME280;51019;46.090;6.350;2023-04-27T04:22:36;96637.47;;;5.09;100.00
64610;BME280;51019;46.090;6.350;2023-04-27T04:25:05;96633.75;;;5.14;100.00
64610;BME280;51019;46.090;6.350;2023-04-27T04:27:33;96639.09;;;5.36;100.00
64610;BME280;51019;46.090;6.350;2023-04-27T04:30:02;96630.00;;;5.18;100.00
64610;BME280;51019;46.090;6.350;2023-04-27T04:32:31;96600.63;;;5.04;100.00
64610;BME280;51019;46.090;6.350;2023-04-27T04:34:59;96641.78;;;5.34;100.00
64610;BME280;51019;46.090;6.350;2023-04-27T04:37:27;96631.19;;;5.37;100.00
64610;BME280;51019;46.090;6.350;2023-04-27T04:39:56;96607.75;;;5.14;100.00
64610;BME280;51019;46.090;6.350;2023-04-27T04:42:24;96621.06;;;5.45;100.00
64610;BME280;51019;46.090;6.350;2023-04-27T04:44:52;96645.19;;;5.47;100.00
64610;BME280;51019;46.090;6.350;2023-04-27T04:47:21;96638.31;;;5.10;100.00
64610;BME280;51019;46.090;6.350;2023-04-27T04:49:50;96636.53;;;5.10;100.00
64610;BME280;51019;46.090;6.350;2023-04-27T04:52:19;96602.66;;;5.12;100.00
64610;BME280;51019;46.090;6.350;2023-04-27T04:54:50;96631.31;;;5.60;100.00
64610;BME280;51019;46.090;6.350;2023-04-27T04:57:17;96623.84;;;5.55;100.00
64610;BME280;51019;46.090;6.350;2023-04-27T04:59:46;96642.84;;;5.68;100.00
64610;BME280;51019;46.090;6.350;2023-04-27T05:02:14;96642.97;;;5.91;100.00
64610;BME280;51019;46.090;6.350;2023-04-27T05:04:42;96645.16;;;5.97;100.00
64610;BME280;51019;46.090;6.350;2023-04-27T05:07:13;96638.34;;;6.07;100.00
64610;BME280;51019;46.090;6.350;2023-04-27T05:09:44;96646.47;;;6.02;100.00
64610;BME280;51019;46.090;6.350;2023-04-27T05:12:11;96645.56;;;6.14;100.00
64610;BME280;51019;46.090;6.350;2023-04-27T05:14:39;96627.94;;;6.07;100.00
64610;BME280;51019;46.090;6.350;2023-04-27T05:17:06;96639.50;;;6.03;100.00
64610;BME280;51019;46.090;6.350;2023-04-27T05:19:34;96639.69;;;6.00;100.00
64610;BME280;51019;46.090;6.350;2023-04-27T05:22:04;96642.69;;;5.82;100.00
64610;BME280;51019;46.090;6.350;2023-04-27T05:24:32;96628.81;;;5.95;100.00
64610;BME280;51019;46.090;6.350;2023-04-27T05:27:03;96625.81;;;5.88;100.00
64610;BME280;51019;46.090;6.350;2023-04-27T05:29:31;96623.19;;;6.12;100.00
64610;BME280;51019;46.090;6.350;2023-04-27T05:31:59;96622.00;;;6.40;100.00
64610;BME280;51019;46.090;6.350;2023-04-27T05:34:26;96622.88;;;6.63;100.00
64610;BME280;51019;46.090;6.350;2023-04-27T05:36:53;96632.84;;;6.91;100.00
64610;BME280;51019;46.090;6.350;2023-04-27T05:39:21;96630.22;;;7.36;100.00
64610;BME280;51019;46.090;6.350;2023-04-27T05:41:50;96648.94;;;7.41;100.00
64610;BME280;51019;46.090;6.350;2023-04-27T05:44:20;96645.16;;;7.34;100.00
64610;BME280;51019;46.090;6.350;2023-04-27T05:46:50;96645.53;;;7.29;100.00
64610;BME280;51019;46.090;6.350;2023-04-27T05:49:17;96655.13;;;7.28;100.00
64610;BME280;51019;46.090;6.350;2023-04-27T05:51:44;96649.88;;;7.51;100.00
64610;BME280;51019;46.090;6.350;2023-04-27T05:54:14;96631.06;;;7.25;100.00
64610;BME280;51019;46.090;6.350;2023-04-27T05:56:41;96644.34;;;7.22;100.00
64610;BME280;51019;46.090;6.350;2023-04-27T05:59:09;96659.16;;;7.33;100.00
64610;BME280;51019;46.090;6.350;2023-04-27T06:01:41;96663.53;;;7.54;100.00
64610;BME280;51019;46.090;6.350;2023-04-27T06:04:09;96642.03;;;7.73;100.00
64610;BME280;51019;46.090;6.350;2023-04-27T06:06:37;96658.44;;;8.28;100.00
64610;BME280;51019;46.090;6.350;2023-04-27T06:09:10;96665.91;;;8.64;100.00
64610;BME280;51019;46.090;6.350;2023-04-27T06:11:41;96663.19;;;8.96;100.00
64610;BME280;51019;46.090;6.350;2023-04-27T06:14:09;96650.72;;;9.00;100.00
64610;BME280;51019;46.090;6.350;2023-04-27T06:16:38;96667.38;;;9.39;100.00
64610;BME280;51019;46.090;6.350;2023-04-27T06:19:08;96658.22;;;9.54;100.00
64610;BME280;51019;46.090;6.350;2023-04-27T06:21:36;96670.72;;;9.81;100.00
64610;BME280;51019;46.090;6.350;2023-04-27T06:24:05;96664.66;;;9.80;100.00
64610;BME280;51019;46.090;6.350;2023-04-27T06:26:34;96680.88;;;10.24;100.00
64610;BME280;51019;46.090;6.350;2023-04-27T06:29:02;96672.44;;;10.40;100.00
64610;BME280;51019;46.090;6.350;2023-04-27T06:31:32;96678.34;;;10.90;100.00
64610;BME280;51019;46.090;6.350;2023-04-27T06:34:01;96672.94;;;11.01;100.00
64610;BME280;51019;46.090;6.350;2023-04-27T06:36:31;96674.69;;;11.10;99.61
64610;BME280;51019;46.090;6.350;2023-04-27T06:38:58;96674.81;;;11.18;100.00
64610;BME280;51019;46.090;6.350;2023-04-27T06:41:26;96661.97;;;11.52;100.00
64610;BME280;51019;46.090;6.350;2023-04-27T06:43:55;96670.94;;;11.87;100.00
64610;BME280;51019;46.090;6.350;2023-04-27T06:46:23;96666.38;;;11.89;100.00
64610;BME280;51019;46.090;6.350;2023-04-27T06:48:51;96646.25;;;12.07;100.00
64610;BME280;51019;46.090;6.350;2023-04-27T06:51:21;96648.84;;;12.43;100.00
64610;BME280;51019;46.090;6.350;2023-04-27T06:53:50;96648.72;;;12.62;95.90
64610;BME280;51019;46.090;6.350;2023-04-27T06:56:17;96655.44;;;12.82;95.48
64610;BME280;51019;46.090;6.350;2023-04-27T06:58:45;96667.47;;;12.67;98.31
64610;BME280;51019;46.090;6.350;2023-04-27T07:01:14;96635.09;;;12.66;93.84
64610;BME280;51019;46.090;6.350;2023-04-27T07:03:42;96639.53;;;12.66;91.97
64610;BME280;51019;46.090;6.350;2023-04-27T07:06:11;96659.72;;;12.65;89.90
64610;BME280;51019;46.090;6.350;2023-04-27T07:08:39;96663.13;;;13.01;90.02
64610;BME280;51019;46.090;6.350;2023-04-27T07:11:10;96636.63;;;13.21;85.93
64610;BME280;51019;46.090;6.350;2023-04-27T07:13:38;96656.69;;;13.48;74.84
64610;BME280;51019;46.090;6.350;2023-04-27T07:16:07;96669.66;;;13.75;70.29
64610;BME280;51019;46.090;6.350;2023-04-27T07:18:35;96662.94;;;13.89;70.04
64610;BME280;51019;46.090;6.350;2023-04-27T07:21:06;96669.50;;;13.76;69.92
64610;BME280;51019;46.090;6.350;2023-04-27T07:23:34;96666.22;;;13.82;69.15
64610;BME280;51019;46.090;6.350;2023-04-27T07:26:04;96658.91;;;13.68;68.56
64610;BME280;51019;46.090;6.350;2023-04-27T07:28:36;96664.25;;;13.85;67.00
64610;BME280;51019;46.090;6.350;2023-04-27T07:31:05;96640.88;;;13.90;66.11
64610;BME280;51019;46.090;6.350;2023-04-27T07:33:37;96633.66;;;14.00;72.54
64610;BME280;51019;46.090;6.350;2023-04-27T07:36:04;96655.84;;;13.89;70.47
64610;BME280;51019;46.090;6.350;2023-04-27T07:38:33;96637.94;;;14.01;70.06
64610;BME280;51019;46.090;6.350;2023-04-27T07:41:02;96647.78;;;13.91;67.19
64610;BME280;51019;46.090;6.350;2023-04-27T07:43:31;96638.59;;;13.95;63.14
64610;BME280;51019;46.090;6.350;2023-04-27T07:46:03;96642.44;;;14.25;63.05
64610;BME280;51019;46.090;6.350;2023-04-27T07:48:34;96631.13;;;14.73;61.00
64610;BME280;51019;46.090;6.350;2023-04-27T07:51:02;96638.59;;;14.03;65.43
64610;BME280;51019;46.090;6.350;2023-04-27T07:53:30;96628.50;;;14.48;64.94
64610;BME280;51019;46.090;6.350;2023-04-27T07:56:01;96641.81;;;15.12;63.83
64610;BME280;51019;46.090;6.350;2023-04-27T07:58:32;96611.63;;;14.09;62.99
64610;BME280;51019;46.090;6.350;2023-04-27T08:01:03;96640.00;;;14.96;62.23
64610;BME280;51019;46.090;6.350;2023-04-27T08:03:34;96647.25;;;15.10;61.08
64610;BME280;51019;46.090;6.350;2023-04-27T08:06:04;96654.53;;;15.00;61.79
64610;BME280;51019;46.090;6.350;2023-04-27T08:08:31;96631.06;;;15.13;59.73
64610;BME280;51019;46.090;6.350;2023-04-27T08:11:02;96636.25;;;15.54;59.90
64610;BME280;51019;46.090;6.350;2023-04-27T08:13:35;96620.00;;;15.18;59.36
64610;BME280;51019;46.090;6.350;2023-04-27T08:16:06;96633.59;;;15.54;58.56
64610;BME280;51019;46.090;6.350;2023-04-27T08:18:36;96621.69;;;15.03;59.51
64610;BME280;51019;46.090;6.350;2023-04-27T08:21:03;96628.31;;;15.54;58.50
64610;BME280;51019;46.090;6.350;2023-04-27T08:23:32;96612.97;;;15.49;59.43
64610;BME280;51019;46.090;6.350;2023-04-27T08:26:01;96618.28;;;15.88;57.86
64610;BME280;51019;46.090;6.350;2023-04-27T08:28:31;96607.63;;;16.05;56.93
64610;BME280;51019;46.090;6.350;2023-04-27T08:30:59;96617.22;;;16.28;56.54
64610;BME280;51019;46.090;6.350;2023-04-27T08:33:29;96605.13;;;16.11;55.08
64610;BME280;51019;46.090;6.350;2023-04-27T08:35:57;96617.59;;;15.94;54.86
64610;BME280;51019;46.090;6.350;2023-04-27T08:38:25;96612.06;;;16.58;53.69
64610;BME280;51019;46.090;6.350;2023-04-27T08:40:53;96598.69;;;16.51;53.26
64610;BME280;51019;46.090;6.350;2023-04-27T08:43:22;96610.53;;;16.63;53.46
64610;BME280;51019;46.090;6.350;2023-04-27T08:45:50;96622.78;;;17.02;52.10
64610;BME280;51019;46.090;6.350;2023-04-27T08:48:19;96606.66;;;17.26;50.52
64610;BME280;51019;46.090;6.350;2023-04-27T08:50:51;96606.25;;;17.00;50.64
64610;BME280;51019;46.090;6.350;2023-04-27T08:53:21;96583.59;;;17.27;49.69
64610;BME280;51019;46.090;6.350;2023-04-27T08:55:51;96595.19;;;17.85;50.19
64610;BME280;51019;46.090;6.350;2023-04-27T08:58:20;96601.25;;;17.78;50.61
64610;BME280;51019;46.090;6.350;2023-04-27T09:00:49;96605.31;;;17.96;52.28
64610;BME280;51019;46.090;6.350;2023-04-27T09:03:21;96600.72;;;17.68;51.70
64610;BME280;51019;46.090;6.350;2023-04-27T09:05:53;96604.72;;;17.79;51.54
64610;BME280;51019;46.090;6.350;2023-04-27T09:08:21;96601.94;;;17.87;50.31
64610;BME280;51019;46.090;6.350;2023-04-27T09:10:50;96591.94;;;18.04;50.21
64610;BME280;51019;46.090;6.350;2023-04-27T09:13:19;96584.50;;;17.78;49.90
64610;BME280;51019;46.090;6.350;2023-04-27T09:15:48;96590.25;;;18.18;49.02
64610;BME280;51019;46.090;6.350;2023-04-27T09:18:18;96592.97;;;18.45;48.94
64610;BME280;51019;46.090;6.350;2023-04-27T09:20:47;96596.00;;;19.47;45.54
64610;BME280;51019;46.090;6.350;2023-04-27T09:23:32;96592.78;;;18.47;48.26
64610;BME280;51019;46.090;6.350;2023-04-27T09:26:01;96590.63;;;18.14;50.54
64610;BME280;51019;46.090;6.350;2023-04-27T09:28:36;96560.56;;;18.71;48.26
64610;BME280;51019;46.090;6.350;2023-04-27T09:31:05;96593.25;;;19.28;47.04
64610;BME280;51019;46.090;6.350;2023-04-27T09:33:34;96581.47;;;19.43;45.57
64610;BME280;51019;46.090;6.350;2023-04-27T09:36:05;96579.78;;;19.64;44.30
64610;BME280;51019;46.090;6.350;2023-04-27T09:38:36;96555.50;;;19.45;41.75
64610;BME280;51019;46.090;6.350;2023-04-27T09:41:05;96567.31;;;18.74;43.70
64610;BME280;51019;46.090;6.350;2023-04-27T09:43:36;96566.44;;;18.67;43.31
64610;BME280;51019;46.090;6.350;2023-04-27T09:46:06;96576.75;;;19.04;46.30
64610;BME280;51019;46.090;6.350;2023-04-27T09:48:33;96578.25;;;19.20;44.21
64610;BME280;51019;46.090;6.350;2023-04-27T09:51:04;96570.91;;;19.50;43.81
64610;BME280;51019;46.090;6.350;2023-04-27T09:53:37;96547.34;;;19.47;44.33
64610;BME280;51019;46.090;6.350;2023-04-27T09:56:22;96573.66;;;19.35;44.39
64610;BME280;51019;46.090;6.350;2023-04-27T09:59:09;96572.25;;;19.05;48.42
64610;BME280;51019;46.090;6.350;2023-04-27T10:01:44;96569.34;;;19.34;45.21
64610;BME280;51019;46.090;6.350;2023-04-27T10:04:30;96558.91;;;19.26;47.71
64610;BME280;51019;46.090;6.350;2023-04-27T10:07:04;96556.63;;;20.18;47.06
64610;BME280;51019;46.090;6.350;2023-04-27T10:09:40;96569.84;;;19.99;44.49
64610;BME280;51019;46.090;6.350;2023-04-27T10:12:14;96561.56;;;20.28;45.48
64610;BME280;51019;46.090;6.350;2023-04-27T10:14:51;96556.84;;;20.30;45.97
64610;BME280;51019;46.090;6.350;2023-04-27T10:17:24;96559.34;;;20.78;45.69
64610;BME280;51019;46.090;6.350;2023-04-27T10:20:00;96544.22;;;20.52;47.59
64610;BME280;51019;46.090;6.350;2023-04-27T10:22:39;96543.31;;;20.18;46.40
64610;BME280;51019;46.090;6.350;2023-04-27T10:25:24;96553.63;;;20.87;43.30
64610;BME280;51019;46.090;6.350;2023-04-27T10:28:00;96546.03;;;20.84;45.86
64610;BME280;51019;46.090;6.350;2023-04-27T10:30:33;96542.97;;;20.74;45.68
64610;BME280;51019;46.090;6.350;2023-04-27T10:33:04;96541.53;;;20.72;46.57
64610;BME280;51019;46.090;6.350;2023-04-27T10:35:38;96538.22;;;20.30;49.33
64610;BME280;51019;46.090;6.350;2023-04-27T10:38:09;96528.66;;;20.42;45.35
64610;BME280;51019;46.090;6.350;2023-04-27T10:40:44;96535.00;;;20.61;45.58
64610;BME280;51019;46.090;6.350;2023-04-27T10:43:14;96547.88;;;20.84;46.91
64610;BME280;51019;46.090;6.350;2023-04-27T10:45:43;96536.44;;;20.77;46.31
64610;BME280;51019;46.090;6.350;2023-04-27T10:48:12;96537.44;;;20.95;44.22
64610;BME280;51019;46.090;6.350;2023-04-27T10:50:43;96534.31;;;21.31;44.20
64610;BME280;51019;46.090;6.350;2023-04-27T10:53:16;96527.03;;;21.58;42.00
64610;BME280;51019;46.090;6.350;2023-04-27T10:55:54;96533.97;;;21.66;40.90
64610;BME280;51019;46.090;6.350;2023-04-27T10:58:24;96537.34;;;21.35;40.14
64610;BME280;51019;46.090;6.350;2023-04-27T11:00:52;96540.22;;;21.40;40.17
64610;BME280;51019;46.090;6.350;2023-04-27T11:03:22;96533.28;;;21.13;44.71
64610;BME280;51019;46.090;6.350;2023-04-27T11:05:59;96532.97;;;21.60;42.04
64610;BME280;51019;46.090;6.350;2023-04-27T11:08:42;96532.97;;;22.12;42.10
64610;BME280;51019;46.090;6.350;2023-04-27T11:11:15;96522.09;;;22.63;40.21
64610;BME280;51019;46.090;6.350;2023-04-27T11:13:47;96520.47;;;22.62;41.44
64610;BME280;51019;46.090;6.350;2023-04-27T11:16:17;96530.56;;;23.09;42.39
64610;BME280;51019;46.090;6.350;2023-04-27T11:18:46;96522.22;;;22.50;39.33
64610;BME280;51019;46.090;6.350;2023-04-27T11:21:16;96520.81;;;22.16;40.09
64610;BME280;51019;46.090;6.350;2023-04-27T11:23:46;96515.75;;;22.01;37.92
64610;BME280;51019;46.090;6.350;2023-04-27T11:26:17;96516.06;;;22.18;36.64
64610;BME280;51019;46.090;6.350;2023-04-27T11:28:58;96523.19;;;23.05;37.03
64610;BME280;51019;46.090;6.350;2023-04-27T11:31:38;96520.44;;;23.48;37.20
64610;BME280;51019;46.090;6.350;2023-04-27T11:34:08;96516.34;;;23.82;34.47
64610;BME280;51019;46.090;6.350;2023-04-27T11:36:40;96519.50;;;23.42;34.29
64610;BME280;51019;46.090;6.350;2023-04-27T11:39:15;96520.75;;;23.40;31.34
64610;BME280;51019;46.090;6.350;2023-04-27T11:41:48;96522.00;;;23.37;32.47
64610;BME280;51019;46.090;6.350;2023-04-27T11:44:17;96514.69;;;23.69;32.67
64610;BME280;51019;46.090;6.350;2023-04-27T11:46:46;96507.63;;;23.20;36.55
64610;BME280;51019;46.090;6.350;2023-04-27T11:49:14;96496.19;;;23.13;36.03
64610;BME280;51019;46.090;6.350;2023-04-27T11:51:44;96508.88;;;22.99;36.86
64610;BME280;51019;46.090;6.350;2023-04-27T11:54:13;96513.53;;;23.04;36.21
64610;BME280;51019;46.090;6.350;2023-04-27T11:56:42;96517.78;;;22.62;37.51
64610;BME280;51019;46.090;6.350;2023-04-27T11:59:21;96508.34;;;22.03;36.47
64610;BME280;51019;46.090;6.350;2023-04-27T12:01:52;96484.28;;;22.91;35.99
64610;BME280;51019;46.090;6.350;2023-04-27T12:04:21;96505.59;;;23.15;36.25
64610;BME280;51019;46.090;6.350;2023-04-27T12:06:50;96503.03;;;22.84;38.50
64610;BME280;51019;46.090;6.350;2023-04-27T12:09:18;96487.91;;;22.46;36.40
64610;BME280;51019;46.090;6.350;2023-04-27T12:11:47;96510.75;;;22.92;37.16
64610;BME280;51019;46.090;6.350;2023-04-27T12:14:21;96512.91;;;22.84;38.99
64610;BME280;51019;46.090;6.350;2023-04-27T12:16:49;96501.44;;;23.38;37.10
64610;BME280;51019;46.090;6.350;2023-04-27T12:19:19;96511.97;;;23.14;37.11
64610;BME280;51019;46.090;6.350;2023-04-27T12:21:50;96506.13;;;23.06;35.00
64610;BME280;51019;46.090;6.350;2023-04-27T12:24:20;96509.63;;;23.61;34.41
64610;BME280;51019;46.090;6.350;2023-04-27T12:27:08;96502.63;;;24.50;33.83
64610;BME280;51019;46.090;6.350;2023-04-27T12:29:39;96496.41;;;23.96;33.83
64610;BME280;51019;46.090;6.350;2023-04-27T12:32:07;96498.53;;;23.76;37.69
64610;BME280;51019;46.090;6.350;2023-04-27T12:34:38;96497.13;;;23.92;34.06
64610;BME280;51019;46.090;6.350;2023-04-27T12:37:07;96505.63;;;24.00;33.93
64610;BME280;51019;46.090;6.350;2023-04-27T12:39:35;96498.88;;;23.68;35.52
64610;BME280;51019;46.090;6.350;2023-04-27T12:42:04;96504.34;;;23.18;34.00
64610;BME280;51019;46.090;6.350;2023-04-27T12:44:32;96507.78;;;23.43;33.51
64610;BME280;51019;46.090;6.350;2023-04-27T12:47:02;96504.69;;;24.24;34.59
64610;BME280;51019;46.090;6.350;2023-04-27T12:49:32;96503.78;;;23.82;32.40
64610;BME280;51019;46.090;6.350;2023-04-27T12:52:09;96495.91;;;24.17;32.13
64610;BME280;51019;46.090;6.350;2023-04-27T12:54:39;96498.16;;;23.91;33.03
64610;BME280;51019;46.090;6.350;2023-04-27T12:57:10;96460.72;;;24.02;33.60
64610;BME280;51019;46.090;6.350;2023-04-27T12:59:39;96489.34;;;24.02;34.43
64610;BME280;51019;46.090;6.350;2023-04-27T13:02:09;96429.19;;;23.26;35.93
64610;BME280;51019;46.090;6.350;2023-04-27T13:04:38;96482.22;;;23.29;34.62
64610;BME280;51019;46.090;6.350;2023-04-27T13:07:20;96471.84;;;23.87;35.03
64610;BME280;51019;46.090;6.350;2023-04-27T13:09:53;96482.13;;;24.44;34.25
64610;BME280;51019;46.090;6.350;2023-04-27T13:12:23;96490.66;;;24.52;31.74